Time;durP1;ratioP1;P1;durP2;ratioP2;P2;SDS_P1;SDS_P2;PMS_P1;PMS_P2;Temp;Humidity;BMP_temperature;BMP_pressure;BME280_temperature;BME280_humidity;BME280_pressure;Samples;Min_cycle;Max_cycle;Signal;HPM_P1;HPM_P2
2024/03/12 00:01:08;;;;;;;3.97;2.80;;;22.00;39.20;;;;;;5091421;28;20225;-59
2024/03/12 00:03:35;;;;;;;5.20;3.33;;;21.90;39.70;;;;;;5092447;28;20190;-59
2024/03/12 00:06:03;;;;;;;5.40;2.80;;;21.90;39.10;;;;;;5092060;28;20192;-59
2024/03/12 00:08:32;;;;;;;5.25;2.88;;;21.90;39.10;;;;;;5092098;28;20197;-59
2024/03/12 00:10:59;;;;;;;5.90;2.97;;;21.90;39.10;;;;;;5092230;28;20197;-59
2024/03/12 00:13:26;;;;;;;5.50;3.00;;;21.90;39.10;;;;;;5092551;28;20269;-59
2024/03/12 00:15:54;;;;;;;5.32;2.97;;;21.90;39.30;;;;;;5091430;28;20217;-59
2024/03/12 00:18:25;;;;;;;5.57;3.38;;;21.90;39.10;;;;;;5092533;28;20217;-59
2024/03/12 00:20:52;;;;;;;5.10;3.10;;;22.00;39.20;;;;;;5092303;28;20397;-59
2024/03/12 00:23:19;;;;;;;4.97;3.08;;;22.00;39.20;;;;;;5092084;28;20259;-61
2024/03/12 00:25:47;;;;;;;5.45;3.13;;;21.90;39.10;;;;;;5092247;28;20628;-59
2024/03/12 00:28:14;;;;;;;3.95;2.65;;;21.90;39.10;;;;;;5091907;28;20596;-59
2024/03/12 00:30:41;;;;;;;4.38;2.95;;;22.00;39.20;;;;;;5091254;28;20284;-59
2024/03/12 00:33:08;;;;;;;5.25;3.10;;;21.90;39.10;;;;;;5091623;28;20268;-59
2024/03/12 00:35:38;;;;;;;5.55;3.03;;;21.90;39.10;;;;;;5093589;28;20205;-59
2024/03/12 00:38:05;;;;;;;5.50;3.00;;;21.90;39.10;;;;;;5096122;28;20225;-59
2024/03/12 00:40:34;;;;;;;3.63;2.60;;;21.90;39.10;;;;;;5096051;28;20214;-59
2024/03/12 00:43:02;;;;;;;5.45;2.88;;;21.90;39.10;;;;;;5096252;28;20236;-59
2024/03/12 00:45:36;;;;;;;4.35;2.53;;;21.90;39.10;;;;;;5095637;28;20223;-60
2024/03/12 00:48:03;;;;;;;4.93;2.90;;;21.90;39.10;;;;;;5096203;28;20221;-60
2024/03/12 00:50:30;;;;;;;4.95;3.00;;;21.90;39.10;;;;;;5095909;28;20190;-59
2024/03/12 00:52:57;;;;;;;5.18;2.97;;;21.90;39.20;;;;;;5095376;28;20213;-59
2024/03/12 00:55:24;;;;;;;4.35;2.90;;;21.90;39.20;;;;;;5096232;28;20190;-59
2024/03/12 00:57:52;;;;;;;4.72;2.55;;;21.90;39.20;;;;;;5096034;28;20652;-59
2024/03/12 01:00:25;;;;;;;5.68;3.35;;;21.90;39.20;;;;;;5095079;28;20214;-59
2024/03/12 01:02:53;;;;;;;5.45;2.70;;;21.90;39.20;;;;;;5095717;28;20218;-61
2024/03/12 01:05:24;;;;;;;4.57;2.65;;;21.90;39.20;;;;;;5095584;28;20228;-59
2024/03/12 01:07:53;;;;;;;5.90;3.22;;;21.90;39.20;;;;;;5095709;28;20300;-59
2024/03/12 01:10:21;;;;;;;5.18;2.78;;;21.90;39.80;;;;;;5095797;28;20190;-59
2024/03/12 01:12:48;;;;;;;5.03;2.85;;;21.90;39.20;;;;;;5095959;28;20210;-59
2024/03/12 01:15:18;;;;;;;5.97;2.97;;;21.90;39.20;;;;;;5095348;28;20186;-59
2024/03/12 01:17:47;;;;;;;5.60;2.65;;;21.90;39.20;;;;;;5095283;28;20271;-59
2024/03/12 01:20:16;;;;;;;3.78;2.65;;;21.90;39.20;;;;;;5095155;28;20214;-59
2024/03/12 01:22:44;;;;;;;5.88;2.88;;;21.90;39.20;;;;;;5095206;28;20387;-59
2024/03/12 01:25:11;;;;;;;5.00;2.70;;;22.00;39.30;;;;;;5095299;28;20276;-59
2024/03/12 01:27:41;;;;;;;8.00;2.83;;;21.90;39.20;;;;;;5095311;28;20245;-59
2024/03/12 01:30:14;;;;;;;6.40;3.20;;;21.90;39.30;;;;;;5095167;28;20201;-59
2024/03/12 01:32:41;;;;;;;5.15;2.80;;;21.90;39.20;;;;;;5094628;28;20245;-58
2024/03/12 01:35:12;;;;;;;3.78;2.70;;;21.90;39.30;;;;;;5094876;28;20198;-58
2024/03/12 01:37:41;;;;;;;5.47;2.95;;;21.90;39.30;;;;;;5095164;28;20210;-59
2024/03/12 01:40:19;;;;;;;5.15;2.42;;;21.90;39.30;;;;;;5094839;28;20187;-59
2024/03/12 01:42:48;;;;;;;4.78;2.70;;;21.90;39.30;;;;;;5094896;28;20213;-59
2024/03/12 01:45:16;;;;;;;5.00;2.83;;;21.90;39.30;;;;;;5094156;28;20221;-61
2024/03/12 01:47:43;;;;;;;5.03;2.55;;;21.90;39.30;;;;;;5093690;28;20214;-59
2024/03/12 01:50:12;;;;;;;4.55;2.70;;;21.90;39.30;;;;;;5094528;28;20194;-59
2024/03/12 01:52:39;;;;;;;6.05;2.80;;;21.90;39.20;;;;;;5094536;28;20790;-59
2024/03/12 01:55:07;;;;;;;5.45;3.08;;;21.90;39.20;;;;;;5094705;28;20197;-59
2024/03/12 01:57:35;;;;;;;3.53;2.45;;;22.00;39.30;;;;;;5094504;28;20221;-59
2024/03/12 02:00:04;;;;;;;4.40;2.67;;;21.90;39.20;;;;;;5094106;28;20235;-59
2024/03/12 02:02:31;;;;;;;5.40;2.88;;;21.90;39.20;;;;;;5094654;28;20218;-59
2024/03/12 02:04:58;;;;;;;6.68;2.95;;;21.90;39.20;;;;;;5094231;28;20224;-59
2024/03/12 02:07:27;;;;;;;5.95;2.88;;;21.90;39.20;;;;;;5094418;28;20267;-59
2024/03/12 02:09:53;;;;;;;4.88;2.88;;;22.00;39.30;;;;;;5094128;28;20280;-59
2024/03/12 02:12:22;;;;;;;4.65;3.05;;;21.90;39.20;;;;;;5094040;28;20679;-59
2024/03/12 02:14:49;;;;;;;3.50;2.67;;;21.90;39.30;;;;;;5094046;28;20652;-59
2024/03/12 02:17:16;;;;;;;3.53;2.80;;;21.90;39.30;;;;;;5094160;28;20214;-59
2024/03/12 02:19:43;;;;;;;5.68;2.67;;;21.90;39.30;;;;;;5093920;28;20190;-59
2024/03/12 02:22:10;;;;;;;4.50;3.00;;;21.90;39.30;;;;;;5094080;28;20240;-59
2024/03/12 02:24:38;;;;;;;5.15;3.22;;;21.90;39.30;;;;;;5094148;28;20190;-59
2024/03/12 02:27:05;;;;;;;5.45;2.78;;;21.90;39.30;;;;;;5094008;28;20217;-59
2024/03/12 02:29:32;;;;;;;5.72;2.63;;;21.90;39.30;;;;;;5093713;28;20703;-59
2024/03/12 02:31:59;;;;;;;3.40;2.50;;;21.90;40.00;;;;;;5092711;28;20279;-59
2024/03/12 02:34:29;;;;;;;4.88;2.83;;;21.90;39.30;;;;;;5093925;28;20194;-59
2024/03/12 02:36:56;;;;;;;5.97;2.88;;;21.90;39.30;;;;;;5093934;28;20275;-59
2024/03/12 02:39:23;;;;;;;5.18;2.40;;;21.90;39.30;;;;;;5093798;28;20186;-62
2024/03/12 02:41:51;;;;;;;4.65;2.47;;;21.90;39.30;;;;;;5093350;28;20261;-59
2024/03/12 02:44:18;;;;;;;5.22;2.75;;;21.90;39.30;;;;;;5093782;28;20190;-59
2024/03/12 02:46:49;;;;;;;3.67;2.58;;;21.90;39.40;;;;;;5092979;28;20217;-59
2024/03/12 02:49:16;;;;;;;4.78;2.72;;;21.90;39.30;;;;;;5093424;28;20237;-59
2024/03/12 02:51:45;;;;;;;6.32;2.65;;;21.90;39.30;;;;;;5093619;28;20305;-58
2024/03/12 02:54:13;;;;;;;5.00;2.97;;;21.90;39.40;;;;;;5093294;28;20196;-59
2024/03/12 02:56:40;;;;;;;4.03;2.60;;;21.90;40.10;;;;;;5093469;28;20305;-59
2024/03/12 02:59:11;;;;;;;5.32;2.80;;;21.90;39.40;;;;;;5093074;28;20289;-59
2024/03/12 03:01:38;;;;;;;5.95;2.58;;;21.90;39.40;;;;;;5092829;28;20284;-59
2024/03/12 03:04:06;;;;;;;6.25;3.00;;;21.90;39.40;;;;;;5093185;28;20277;-58
2024/03/12 03:06:32;;;;;;;3.45;2.42;;;21.90;39.40;;;;;;5093343;28;20301;-59
2024/03/12 03:09:00;;;;;;;8.00;2.88;;;21.90;39.40;;;;;;5092901;28;20704;-59
2024/03/12 03:11:27;;;;;;;4.88;2.60;;;21.90;39.40;;;;;;5092965;28;20689;-59
2024/03/12 03:13:54;;;;;;;5.78;2.65;;;21.90;39.50;;;;;;5093265;28;20192;-59
2024/03/12 03:16:23;;;;;;;3.75;2.70;;;21.90;39.50;;;;;;5092123;28;20186;-59
2024/03/12 03:18:49;;;;;;;4.88;2.15;;;21.90;39.50;;;;;;5093155;28;20191;-59
2024/03/12 03:21:16;;;;;;;7.38;2.78;;;21.90;39.50;;;;;;5092869;28;20236;-59
2024/03/12 03:23:43;;;;;;;4.57;2.90;;;21.90;39.50;;;;;;5092975;28;20280;-59
2024/03/12 03:26:10;;;;;;;6.60;2.55;;;21.90;39.50;;;;;;5092758;28;20208;-59
2024/03/12 03:28:37;;;;;;;4.78;2.53;;;21.90;39.50;;;;;;5092509;28;20769;-59
2024/03/12 03:31:04;;;;;;;5.80;2.80;;;21.90;39.50;;;;;;5091748;28;20644;-59
2024/03/12 03:33:33;;;;;;;4.03;2.60;;;21.90;39.50;;;;;;5092830;28;20625;-59
2024/03/12 03:36:00;;;;;;;7.28;3.10;;;21.90;39.50;;;;;;5093060;28;20275;-59
2024/03/12 03:38:27;;;;;;;4.97;2.65;;;21.90;39.50;;;;;;5091729;28;20218;-59
2024/03/12 03:40:54;;;;;;;5.78;2.28;;;21.90;39.60;;;;;;5092740;28;20225;-58
2024/03/12 03:43:21;;;;;;;6.15;2.63;;;21.90;39.60;;;;;;5092799;28;20304;-59
2024/03/12 03:45:48;;;;;;;5.93;2.67;;;21.90;39.60;;;;;;5092026;28;20197;-59
2024/03/12 03:48:15;;;;;;;5.05;2.92;;;21.90;39.60;;;;;;5092854;28;20213;-59
2024/03/12 03:50:43;;;;;;;5.55;2.45;;;21.90;39.60;;;;;;5091615;28;20306;-60
2024/03/12 03:53:10;;;;;;;4.63;2.65;;;21.90;39.60;;;;;;5092184;28;20703;-59
2024/03/12 03:55:38;;;;;;;3.75;2.63;;;21.90;39.70;;;;;;5092515;28;20186;-59
2024/03/12 03:58:06;;;;;;;5.40;2.60;;;21.90;39.60;;;;;;5092605;28;20245;-58
2024/03/12 04:00:35;;;;;;;4.90;2.55;;;21.90;39.60;;;;;;5091632;28;20339;-59
2024/03/12 04:03:02;;;;;;;4.82;2.53;;;21.90;39.60;;;;;;5092405;28;20229;-59
2024/03/12 04:05:30;;;;;;;4.70;2.40;;;21.90;39.70;;;;;;5092286;28;20273;-59
2024/03/12 04:07:58;;;;;;;4.72;2.35;;;21.90;39.70;;;;;;5092386;28;20312;-59
2024/03/12 04:10:25;;;;;;;4.70;2.22;;;21.90;39.70;;;;;;5091131;28;20186;-59
2024/03/12 04:12:55;;;;;;;5.90;2.33;;;21.90;39.70;;;;;;5092018;28;20263;-59
2024/03/12 04:15:22;;;;;;;5.22;2.50;;;21.90;39.70;;;;;;5091315;28;20281;-59
2024/03/12 04:17:49;;;;;;;4.88;2.47;;;21.90;39.70;;;;;;5092263;28;20214;-60
2024/03/12 04:20:17;;;;;;;3.88;2.40;;;21.90;39.70;;;;;;5092358;28;20182;-59
2024/03/12 04:22:45;;;;;;;4.25;2.25;;;21.90;39.70;;;;;;5092070;28;20229;-59
2024/03/12 04:25:15;;;;;;;4.85;2.45;;;21.90;39.70;;;;;;5091878;28;20731;-59
2024/03/12 04:27:42;;;;;;;4.18;2.50;;;21.90;39.70;;;;;;5092209;28;20222;-59
2024/03/12 04:30:11;;;;;;;5.22;2.70;;;21.90;39.70;;;;;;5091466;28;20194;-59
2024/03/12 04:32:38;;;;;;;5.53;2.63;;;21.90;39.70;;;;;;5091636;28;20603;-59
2024/03/12 04:35:09;;;;;;;3.63;2.42;;;21.90;39.70;;;;;;5092197;28;20746;-61
2024/03/12 04:37:36;;;;;;;3.80;2.20;;;21.90;39.70;;;;;;5091954;28;20716;-59
2024/03/12 04:40:06;;;;;;;4.35;2.40;;;21.90;39.70;;;;;;5092262;28;20217;-59
2024/03/12 04:42:35;;;;;;;6.30;2.70;;;21.90;39.80;;;;;;5092103;28;20268;-59
2024/03/12 04:45:04;;;;;;;4.55;2.33;;;21.90;39.80;;;;;;5091369;28;20273;-61
2024/03/12 04:47:32;;;;;;;3.42;2.50;;;21.90;39.80;;;;;;5091763;28;20220;-59
2024/03/12 04:49:59;;;;;;;4.00;2.20;;;21.90;39.80;;;;;;5091896;28;20190;-59
2024/03/12 04:52:25;;;;;;;5.38;2.30;;;21.90;39.80;;;;;;5091891;28;20300;-59
2024/03/12 04:54:52;;;;;;;3.72;2.25;;;21.90;39.80;;;;;;5091850;28;20539;-59
2024/03/12 04:57:20;;;;;;;4.00;2.38;;;21.90;39.80;;;;;;5091880;28;20218;-59
2024/03/12 04:59:48;;;;;;;4.32;2.13;;;21.90;39.80;;;;;;5090907;28;20696;-59
2024/03/12 05:02:16;;;;;;;5.55;2.20;;;21.90;39.80;;;;;;5091435;28;20324;-59
2024/03/12 05:04:43;;;;;;;4.85;2.55;;;21.90;39.80;;;;;;5092035;28;20556;-59
2024/03/12 05:07:11;;;;;;;4.07;2.28;;;21.90;40.50;;;;;;5091898;28;20304;-59
2024/03/12 05:09:38;;;;;;;4.97;2.30;;;22.00;39.90;;;;;;5091711;28;20252;-59
2024/03/12 05:12:05;;;;;;;4.78;2.20;;;21.90;39.80;;;;;;5091962;28;20214;-59
2024/03/12 05:14:32;;;;;;;4.57;2.33;;;21.90;39.80;;;;;;5091100;28;20277;-59
2024/03/12 05:17:00;;;;;;;2.63;2.00;;;21.90;39.80;;;;;;5091802;28;20224;-59
2024/03/12 05:19:27;;;;;;;5.03;2.20;;;21.90;39.90;;;;;;5091179;28;20568;-59
2024/03/12 05:21:54;;;;;;;4.35;2.20;;;21.90;40.00;;;;;;5093603;28;20663;-62
2024/03/12 05:24:21;;;;;;;4.90;2.20;;;21.90;39.90;;;;;;5095072;28;20600;-59
2024/03/12 05:26:49;;;;;;;4.93;2.40;;;22.00;40.00;;;;;;5094751;28;20252;-60
2024/03/12 05:29:17;;;;;;;3.75;2.10;;;21.90;39.90;;;;;;5094503;28;20278;-59
2024/03/12 05:31:44;;;;;;;4.60;2.30;;;21.90;39.90;;;;;;5094889;28;20237;-59
2024/03/12 05:34:16;;;;;;;3.55;1.90;;;21.90;39.90;;;;;;5095067;28;20194;-60
2024/03/12 05:36:48;;;;;;;6.72;2.35;;;21.90;40.00;;;;;;5095045;28;20260;-59
2024/03/12 05:39:20;;;;;;;4.13;2.17;;;21.90;40.60;;;;;;5094904;28;20226;-59
2024/03/12 05:48:07;;;;;;;5.00;1.90;;;21.90;40.00;;;;;;5094989;28;20309;-61
2024/03/12 05:50:16;;;;;;;4.82;2.33;;;21.90;40.10;;;;;;5094603;28;20315;-59
2024/03/12 05:52:45;;;;;;;4.00;2.35;;;21.90;40.10;;;;;;5094688;28;20733;-59
2024/03/12 05:55:15;;;;;;;5.15;2.40;;;21.90;40.10;;;;;;5094640;28;20277;-59
2024/03/12 05:57:43;;;;;;;4.05;1.88;;;21.90;40.00;;;;;;5094859;28;20213;-59
2024/03/12 06:00:12;;;;;;;4.00;2.00;;;21.90;40.10;;;;;;5093980;28;20186;-59
2024/03/12 06:02:39;;;;;;;5.80;2.00;;;21.90;40.10;;;;;;5094407;28;20234;-59
2024/03/12 06:05:06;;;;;;;3.63;2.00;;;21.90;40.10;;;;;;5094292;28;20186;-59
2024/03/12 06:07:35;;;;;;;2.58;1.88;;;21.90;40.10;;;;;;5094481;28;20300;-59
2024/03/12 06:10:02;;;;;;;4.85;2.10;;;21.90;40.10;;;;;;5094170;28;20205;-59
2024/03/12 06:12:31;;;;;;;4.72;2.03;;;21.90;40.10;;;;;;5094415;28;20328;-59
2024/03/12 06:14:58;;;;;;;4.28;1.73;;;21.90;40.10;;;;;;5093695;28;20198;-61
2024/03/12 06:17:26;;;;;;;4.43;1.70;;;21.90;40.10;;;;;;5093867;28;20225;-58
2024/03/12 06:19:52;;;;;;;3.33;1.83;;;21.90;40.20;;;;;;5094169;28;20277;-58
2024/03/12 06:22:19;;;;;;;3.28;2.25;;;21.90;40.20;;;;;;5093787;28;20238;-59
2024/03/12 06:24:49;;;;;;;5.20;2.33;;;21.90;40.20;;;;;;5093983;28;20185;-58
2024/03/12 06:27:18;;;;;;;4.55;2.00;;;21.90;40.30;;;;;;5093661;28;20779;-58
2024/03/12 06:29:49;;;;;;;3.92;2.08;;;21.90;40.20;;;;;;5093356;28;20190;-59
2024/03/12 06:32:17;;;;;;;2.90;1.80;;;21.90;40.30;;;;;;5092953;28;20327;-59
2024/03/12 06:34:45;;;;;;;3.50;1.63;;;21.90;40.30;;;;;;5093381;28;20682;-58
2024/03/12 06:37:12;;;;;;;3.38;1.95;;;21.90;40.30;;;;;;5093678;28;20712;-58
2024/03/12 06:39:41;;;;;;;3.13;1.65;;;21.90;40.30;;;;;;5093305;28;20198;-58
2024/03/12 06:42:12;;;;;;;4.97;1.92;;;21.90;40.30;;;;;;5093909;28;20228;-58
2024/03/12 06:44:40;;;;;;;3.95;1.35;;;21.90;40.40;;;;;;5093079;28;20587;-58
2024/03/12 06:47:07;;;;;;;3.58;1.60;;;21.90;40.30;;;;;;5093659;28;20220;-59
2024/03/12 06:49:34;;;;;;;3.58;1.80;;;21.90;40.40;;;;;;5093588;28;20594;-58
2024/03/12 06:52:02;;;;;;;2.47;1.67;;;21.90;40.40;;;;;;5093567;28;20332;-58
2024/03/12 06:54:32;;;;;;;5.07;1.98;;;21.90;40.40;;;;;;5093073;28;20187;-58
2024/03/12 06:56:58;;;;;;;3.75;1.77;;;21.90;40.40;;;;;;5093154;28;20312;-58
2024/03/12 06:59:27;;;;;;;3.50;1.90;;;21.90;40.40;;;;;;5092712;28;20192;-59
2024/03/12 07:01:55;;;;;;;2.03;1.50;;;21.90;40.40;;;;;;5092843;28;20786;-58
2024/03/12 07:04:23;;;;;;;2.90;1.58;;;21.90;40.40;;;;;;5093419;28;20186;-58
2024/03/12 07:06:51;;;;;;;3.58;1.58;;;21.90;40.50;;;;;;5093349;28;20214;-58
2024/03/12 07:09:26;;;;;;;3.15;1.58;;;21.90;40.50;;;;;;5093039;28;20199;-59
2024/03/12 07:11:54;;;;;;;3.67;1.55;;;21.90;40.50;;;;;;5093259;28;20251;-59
2024/03/12 07:14:27;;;;;;;3.60;1.60;;;21.90;40.50;;;;;;5092647;28;20602;-58
2024/03/12 07:16:56;;;;;;;4.25;1.67;;;21.90;40.50;;;;;;5092549;28;20719;-58
2024/03/12 07:19:23;;;;;;;3.95;1.75;;;21.90;40.60;;;;;;5093060;28;20197;-59
2024/03/12 07:21:50;;;;;;;2.65;1.60;;;21.90;40.60;;;;;;5092646;28;20457;-59
2024/03/12 07:24:18;;;;;;;2.65;1.70;;;21.90;40.60;;;;;;5092826;28;20190;-58
2024/03/12 07:26:47;;;;;;;3.28;1.50;;;21.90;40.60;;;;;;5093228;28;20196;-58
2024/03/12 07:29:14;;;;;;;4.53;1.63;;;21.90;40.60;;;;;;5092370;28;20198;-60
2024/03/12 07:31:41;;;;;;;3.25;1.52;;;21.90;40.60;;;;;;5092512;28;20249;-58
2024/03/12 07:34:09;;;;;;;3.05;1.70;;;21.90;40.60;;;;;;5093016;28;20289;-58
2024/03/12 07:36:37;;;;;;;3.20;1.70;;;21.90;40.70;;;;;;5092634;28;20186;-59
2024/03/12 07:39:10;;;;;;;3.63;1.33;;;21.90;40.70;;;;;;5092378;28;20290;-59
2024/03/12 07:41:41;;;;;;;4.15;1.70;;;21.90;40.70;;;;;;5085874;28;20218;-59
2024/03/12 07:44:09;;;;;;;4.10;1.50;;;21.90;40.70;;;;;;5075171;28;20586;-60
2024/03/12 07:46:36;;;;;;;3.70;1.50;;;21.90;40.80;;;;;;5071170;28;20191;-59
2024/03/12 07:49:03;;;;;;;3.13;1.50;;;21.90;40.80;;;;;;5082098;28;20225;-58
2024/03/12 07:51:31;;;;;;;4.13;1.73;;;21.90;40.80;;;;;;5087226;28;20202;-62
2024/03/12 07:53:59;;;;;;;3.75;1.88;;;21.90;40.80;;;;;;5077408;28;20281;-63
2024/03/12 07:56:28;;;;;;;3.30;1.80;;;21.90;40.90;;;;;;5065918;28;20187;-64
2024/03/12 07:58:56;;;;;;;4.82;1.73;;;22.00;41.10;;;;;;5083304;28;20707;-65
2024/03/12 08:01:26;;;;;;;4.47;2.00;;;22.00;41.10;;;;;;5089147;28;20183;-65
2024/03/12 08:03:53;;;;;;;6.68;1.80;;;22.10;41.20;;;;;;5089143;28;20703;-63
2024/03/12 08:06:20;;;;;;;5.07;1.95;;;22.10;41.20;;;;;;5083653;28;20236;-62
2024/03/12 08:08:49;;;;;;;2.83;1.45;;;22.20;41.20;;;;;;5086550;28;20221;-63
2024/03/12 08:11:19;;;;;;;3.97;1.90;;;22.10;41.20;;;;;;5090600;28;20202;-62
2024/03/12 08:13:47;;;;;;;3.47;1.58;;;22.30;41.30;;;;;;5081829;28;20696;-63
2024/03/12 08:16:15;;;;;;;5.25;1.90;;;22.20;41.20;;;;;;5083709;28;20852;-62
2024/03/12 08:18:42;;;;;;;6.18;1.95;;;22.30;41.40;;;;;;5089419;28;20719;-64
2024/03/12 08:21:09;;;;;;;5.60;1.83;;;22.30;41.40;;;;;;5078464;28;20545;-64
2024/03/12 08:23:36;;;;;;;7.10;1.80;;;22.40;41.40;;;;;;5086457;28;20236;-63
2024/03/12 08:26:07;;;;;;;8.05;2.03;;;22.40;41.30;;;;;;5090530;28;20202;-66
2024/03/12 08:28:34;;;;;;;6.50;2.00;;;22.40;41.30;;;;;;5089825;28;20236;-65
2024/03/12 08:31:02;;;;;;;3.20;1.50;;;22.50;41.40;;;;;;5090238;28;20202;-66
2024/03/12 08:33:29;;;;;;;5.80;1.95;;;22.50;41.30;;;;;;5084965;28;20228;-66
2024/03/12 08:35:56;;;;;;;6.88;1.98;;;22.50;41.30;;;;;;5079969;28;20198;-63
2024/03/12 08:38:23;;;;;;;4.93;2.08;;;22.50;41.30;;;;;;5090023;28;20214;-65
2024/03/12 08:40:50;;;;;;;5.68;1.77;;;22.50;41.30;;;;;;5090474;28;20190;-63
2024/03/12 08:43:19;;;;;;;4.57;1.65;;;22.60;41.80;;;;;;5089861;28;20229;-64
2024/03/12 08:45:46;;;;;;;7.72;2.00;;;22.60;41.40;;;;;;5082345;28;20286;-61
2024/03/12 08:48:12;;;;;;;4.15;1.65;;;22.60;41.40;;;;;;5083469;28;20643;-64
2024/03/12 08:50:39;;;;;;;3.97;1.70;;;22.60;41.40;;;;;;5089724;28;20289;-63
2024/03/12 08:53:06;;;;;;;6.18;1.80;;;22.60;41.40;;;;;;5089526;28;20301;-65
2024/03/12 08:55:33;;;;;;;3.50;1.70;;;22.60;41.40;;;;;;5089939;28;20281;-64
2024/03/12 08:58:00;;;;;;;4.40;1.92;;;22.70;41.50;;;;;;5093166;28;20251;-63
2024/03/12 09:00:28;;;;;;;6.80;1.95;;;22.70;41.50;;;;;;5093010;28;20652;-63
2024/03/12 09:02:56;;;;;;;8.20;1.95;;;22.60;41.40;;;;;;5092998;28;20601;-66
2024/03/12 09:05:23;;;;;;;4.85;1.98;;;22.70;41.50;;;;;;5092128;28;20201;-66
2024/03/12 09:07:50;;;;;;;3.78;1.50;;;22.70;41.60;;;;;;5093985;28;20206;-66
2024/03/12 09:10:18;;;;;;;4.35;1.80;;;22.70;41.60;;;;;;5094027;28;20634;-64
2024/03/12 09:12:45;;;;;;;4.03;1.80;;;22.70;41.60;;;;;;5090267;28;20306;-66
2024/03/12 09:15:12;;;;;;;4.95;2.08;;;22.80;41.60;;;;;;5086873;28;20655;-65
2024/03/12 09:17:40;;;;;;;9.05;2.20;;;22.80;41.60;;;;;;5094132;28;20863;-64
2024/03/12 09:20:10;;;;;;;5.55;1.67;;;22.80;41.70;;;;;;5094504;28;20197;-65
2024/03/12 09:22:37;;;;;;;5.53;1.90;;;22.80;41.70;;;;;;5093794;28;20710;-65
2024/03/12 09:25:05;;;;;;;9.23;2.08;;;22.80;41.70;;;;;;5094121;28;20277;-63
2024/03/12 09:27:32;;;;;;;3.90;1.65;;;22.80;41.70;;;;;;5093690;28;20210;-66
2024/03/12 09:30:00;;;;;;;5.75;1.63;;;22.80;41.80;;;;;;5093226;28;20226;-65
2024/03/12 09:32:28;;;;;;;6.35;2.47;;;22.80;41.70;;;;;;5058054;28;20244;-63
2024/03/12 09:34:56;;;;;;;5.47;2.00;;;22.80;41.80;;;;;;5093499;28;20190;-65
2024/03/12 09:37:23;;;;;;;10.15;1.77;;;22.80;41.80;;;;;;5093981;28;20287;-66
2024/03/12 09:39:52;;;;;;;5.05;2.05;;;22.80;41.70;;;;;;5091965;28;20182;-62
2024/03/12 09:42:23;;;;;;;9.52;1.67;;;22.80;41.70;;;;;;5080822;28;20216;-64
2024/03/12 09:44:50;;;;;;;6.50;2.15;;;22.90;41.80;;;;;;5092703;28;20838;-65
2024/03/12 09:47:17;;;;;;;4.72;1.60;;;22.80;41.80;;;;;;5093836;28;20210;-63
2024/03/12 09:49:44;;;;;;;10.20;1.70;;;22.90;41.80;;;;;;5080141;28;20261;-65
2024/03/12 09:52:13;;;;;;;4.60;1.58;;;22.90;41.90;;;;;;5093570;28;20217;-65
2024/03/12 09:54:40;;;;;;;7.05;1.50;;;22.80;41.80;;;;;;5093636;28;20186;-65
2024/03/12 09:57:10;;;;;;;5.40;2.00;;;22.80;41.80;;;;;;5092525;28;20580;-65
2024/03/12 09:59:40;;;;;;;7.10;2.20;;;22.80;41.80;;;;;;5092677;28;20186;-63
2024/03/12 10:02:07;;;;;;;9.50;2.00;;;22.90;41.90;;;;;;5093448;28;20209;-65
2024/03/12 10:04:35;;;;;;;6.43;2.00;;;22.90;41.90;;;;;;5093097;28;20212;-64
2024/03/12 10:07:02;;;;;;;4.78;1.77;;;22.90;42.60;;;;;;5091848;28;20274;-62
2024/03/12 10:09:31;;;;;;;6.10;1.80;;;22.90;41.90;;;;;;5092281;28;20261;-62
2024/03/12 10:12:01;;;;;;;5.45;1.88;;;22.90;41.80;;;;;;5079053;28;20187;-64
2024/03/12 10:14:29;;;;;;;6.38;2.00;;;22.90;41.80;;;;;;5076497;28;20206;-65
2024/03/12 10:17:13;;;;;;;7.57;2.38;;;22.90;41.80;;;;;;5093250;28;20263;-62
2024/03/12 10:19:41;;;;;;;5.38;2.03;;;22.90;41.90;;;;;;5092981;28;20576;-62
2024/03/12 10:22:09;;;;;;;6.40;2.22;;;22.90;41.90;;;;;;5092514;28;20194;-63
2024/03/12 10:24:38;;;;;;;6.60;2.05;;;22.90;41.90;;;;;;5079339;28;20202;-65
2024/03/12 10:27:06;;;;;;;6.72;1.83;;;23.00;42.00;;;;;;5091846;28;20194;-65
2024/03/12 10:29:35;;;;;;;8.13;2.13;;;22.90;41.90;;;;;;5092003;28;20227;-66
2024/03/12 10:32:18;;;;;;;6.45;1.95;;;22.90;41.90;;;;;;5092482;28;20342;-64
2024/03/12 10:34:45;;;;;;;4.18;1.65;;;22.90;42.00;;;;;;5092926;28;20291;-65
2024/03/12 10:37:26;;;;;;;10.40;2.20;;;22.90;42.00;;;;;;5092064;28;20712;-64
2024/03/12 10:39:54;;;;;;;6.97;2.15;;;22.90;42.10;;;;;;5090483;28;20194;-66
2024/03/12 10:42:22;;;;;;;7.85;2.60;;;22.90;42.10;;;;;;5072012;28;20226;-64
2024/03/12 10:44:49;;;;;;;9.30;2.35;;;22.90;42.10;;;;;;5071833;28;20586;-66
2024/03/12 10:47:18;;;;;;;9.27;2.10;;;22.90;42.10;;;;;;5075604;28;20272;-65
2024/03/12 10:49:48;;;;;;;6.93;1.95;;;22.90;42.10;;;;;;5092315;28;20191;-65
2024/03/12 10:52:18;;;;;;;10.82;2.58;;;22.90;42.20;;;;;;5092378;28;20183;-62
2024/03/12 10:54:47;;;;;;;9.82;2.58;;;22.90;42.20;;;;;;5091925;28;20186;-67
2024/03/12 10:57:15;;;;;;;8.02;2.35;;;23.00;42.20;;;;;;5091196;28;20194;-65
2024/03/12 10:59:44;;;;;;;9.40;2.47;;;23.00;42.10;;;;;;5091636;28;20183;-65
2024/03/12 11:02:12;;;;;;;8.07;2.33;;;23.10;42.10;;;;;;5092396;28;20565;-64
2024/03/12 11:04:39;;;;;;;8.35;3.00;;;23.10;42.10;;;;;;5092384;28;20218;-65
2024/03/12 11:07:08;;;;;;;9.30;2.33;;;23.20;42.10;;;;;;5092129;28;20192;-65
2024/03/12 11:09:36;;;;;;;10.98;2.17;;;23.20;42.00;;;;;;5082048;28;20274;-64
2024/03/12 11:12:04;;;;;;;8.27;2.28;;;23.30;42.00;;;;;;5071345;28;20197;-62
2024/03/12 11:14:32;;;;;;;6.53;2.17;;;23.30;41.90;;;;;;5071240;28;20607;-66
2024/03/12 11:17:00;;;;;;;7.82;2.28;;;23.30;41.90;;;;;;5071722;28;20649;-67
2024/03/12 11:19:29;;;;;;;6.22;2.20;;;23.30;42.00;;;;;;5071547;28;20215;-65
2024/03/12 11:22:06;;;;;;;9.50;2.42;;;23.30;42.00;;;;;;5075262;28;20194;-65
2024/03/12 11:24:45;;;;;;;7.10;2.10;;;23.30;42.10;;;;;;5091429;28;20691;-62
2024/03/12 11:27:19;;;;;;;7.78;2.50;;;23.30;41.90;;;;;;5086428;28;20202;-63
2024/03/12 11:30:14;;;;;;;6.32;1.90;;;23.30;41.90;;;;;;5069592;28;21608;-65
2024/03/12 11:32:44;;;;;;;8.45;2.40;;;23.30;41.90;;;;;;5078200;28;20225;-65
2024/03/12 11:35:29;;;;;;;9.77;2.80;;;23.20;41.90;;;;;;5090602;28;20265;-64
2024/03/12 11:38:05;;;;;;;10.20;2.35;;;23.20;42.00;;;;;;5089003;28;20324;-65
2024/03/12 11:40:34;;;;;;;7.60;2.55;;;23.20;42.10;;;;;;5092584;28;20220;-64
2024/03/12 11:43:01;;;;;;;7.68;2.60;;;23.10;42.10;;;;;;5083397;28;20217;-60
2024/03/12 11:45:40;;;;;;;8.38;2.08;;;23.10;42.30;;;;;;5078060;28;20203;-65
2024/03/12 11:48:08;;;;;;;7.65;2.28;;;23.00;42.30;;;;;;5094272;28;20221;-63
2024/03/12 11:50:36;;;;;;;8.95;2.58;;;23.00;42.30;;;;;;5093426;28;20196;-62
2024/03/12 11:53:25;;;;;;;12.05;2.88;;;23.00;42.40;;;;;;5089317;28;20249;-62
2024/03/12 11:55:54;;;;;;;7.03;2.30;;;22.90;42.40;;;;;;5085387;28;20263;-60
2024/03/12 11:58:25;;;;;;;13.95;2.38;;;22.90;42.40;;;;;;5089901;28;20221;-61
2024/03/12 12:00:53;;;;;;;8.82;2.67;;;22.90;42.50;;;;;;5090930;28;20711;-64
2024/03/12 12:03:20;;;;;;;8.32;2.63;;;22.90;42.60;;;;;;5091802;28;20309;-61
2024/03/12 12:05:47;;;;;;;6.90;2.13;;;22.90;42.60;;;;;;5091464;28;20300;-64
2024/03/12 12:08:14;;;;;;;7.07;2.28;;;22.90;42.70;;;;;;5091681;28;20210;-63
2024/03/12 12:10:42;;;;;;;7.40;2.30;;;22.90;42.70;;;;;;5091535;28;20190;-64
2024/03/12 12:13:16;;;;;;;8.05;2.63;;;22.90;42.70;;;;;;5090130;28;20714;-64
2024/03/12 12:15:56;;;;;;;10.30;2.58;;;22.90;42.70;;;;;;5091108;28;20190;-63
2024/03/12 12:18:25;;;;;;;8.82;2.13;;;22.90;42.70;;;;;;5091350;28;20308;-64
2024/03/12 12:20:54;;;;;;;8.82;2.33;;;23.00;42.70;;;;;;5091098;28;20593;-63
2024/03/12 12:23:23;;;;;;;6.90;1.90;;;22.90;42.70;;;;;;5090976;28;20730;-64
2024/03/12 12:25:53;;;;;;;9.68;2.70;;;23.00;42.70;;;;;;5078454;28;20187;-64
2024/03/12 12:28:22;;;;;;;7.00;2.20;;;23.10;42.70;;;;;;5071165;28;20214;-64
2024/03/12 12:30:50;;;;;;;6.07;2.20;;;23.10;42.70;;;;;;5071425;28;20191;-61
2024/03/12 12:33:19;;;;;;;7.13;2.30;;;23.10;42.70;;;;;;5074957;28;20724;-63
2024/03/12 12:35:48;;;;;;;8.35;2.15;;;23.10;42.70;;;;;;5074783;28;20202;-64
2024/03/12 12:38:17;;;;;;;7.93;2.03;;;23.00;42.70;;;;;;5092095;28;20715;-65
2024/03/12 12:40:45;;;;;;;7.68;2.40;;;23.10;42.70;;;;;;5115310;27;20202;-65
2024/03/12 12:43:16;;;;;;;9.32;2.20;;;23.00;42.70;;;;;;5115602;27;20277;-64
2024/03/12 12:45:44;;;;;;;7.25;2.50;;;23.00;42.70;;;;;;5115672;28;20217;-62
2024/03/12 12:48:12;;;;;;;7.15;2.47;;;23.00;42.70;;;;;;5115183;28;20252;-64
2024/03/12 12:50:40;;;;;;;6.63;2.53;;;23.00;42.70;;;;;;5094923;28;20186;-65
2024/03/12 12:53:09;;;;;;;8.43;2.10;;;23.00;42.70;;;;;;5095593;28;20245;-62
2024/03/12 12:55:37;;;;;;;7.45;2.20;;;22.90;42.80;;;;;;5094058;28;20247;-63
2024/03/12 12:58:06;;;;;;;9.23;2.67;;;23.00;42.90;;;;;;5093996;28;20217;-63